createdAt,value
2023-04-27T00:00:38.059Z,0.00
2023-04-27T00:01:38.089Z,0.00
2023-04-27T00:02:38.224Z,0.00
2023-04-27T00:03:38.112Z,0.00
2023-04-27T00:04:38.227Z,0.00
2023-04-27T00:05:38.059Z,0.00
2023-04-27T00:06:37.974Z,0.00
2023-04-27T00:07:37.962Z,0.00
2023-04-27T00:08:37.938Z,0.00
2023-04-27T00:09:37.911Z,0.00
2023-04-27T00:10:37.935Z,0.00
2023-04-27T00:11:37.910Z,0.00
2023-04-27T00:12:37.887Z,0.00
2023-04-27T00:13:37.891Z,0.00
2023-04-27T00:14:37.844Z,0.00
2023-04-27T00:15:37.834Z,0.00
2023-04-27T00:16:37.940Z,0.00
2023-04-27T00:17:37.829Z,0.00
2023-04-27T00:18:37.796Z,0.00
2023-04-27T00:19:37.809Z,0.00
2023-04-27T00:20:37.775Z,0.00
2023-04-27T00:21:37.770Z,0.00
2023-04-27T00:22:37.764Z,0.00
2023-04-27T00:23:37.722Z,0.00
2023-04-27T00:24:37.715Z,0.00
2023-04-27T00:25:37.725Z,0.00
2023-04-27T00:26:37.688Z,0.00
2023-04-27T00:27:37.697Z,0.00
2023-04-27T00:28:37.716Z,0.00
2023-04-27T00:29:37.642Z,0.00
2023-04-27T00:30:37.665Z,0.00
2023-04-27T00:31:37.699Z,0.00
2023-04-27T00:32:37.653Z,0.00
2023-04-27T00:33:37.593Z,0.00
2023-04-27T00:34:37.600Z,0.00
2023-04-27T00:35:37.596Z,0.00
2023-04-27T00:36:37.583Z,0.00
2023-04-27T00:37:37.603Z,0.00
2023-04-27T00:38:37.539Z,0.00
2023-04-27T00:39:37.548Z,0.00
2023-04-27T00:40:37.514Z,0.00
2023-04-27T00:41:37.502Z,0.00
2023-04-27T00:42:37.546Z,0.00
2023-04-27T00:43:37.460Z,0.00
2023-04-27T00:44:39.276Z,0.00
2023-04-27T00:45:37.458Z,0.00
2023-04-27T00:46:37.446Z,0.00
2023-04-27T00:47:37.445Z,0.00
2023-04-27T00:48:37.399Z,0.00
2023-04-27T00:49:37.417Z,0.00
2023-04-27T00:50:37.372Z,0.00
2023-04-27T00:51:37.360Z,0.00
2023-04-27T00:52:37.388Z,0.00
2023-04-27T00:53:37.329Z,0.00
2023-04-27T00:54:37.324Z,0.00
2023-04-27T00:55:37.340Z,0.00
2023-04-27T00:56:37.300Z,0.00
2023-04-27T00:57:37.309Z,0.00
2023-04-27T00:58:37.306Z,0.00
2023-04-27T00:59:37.255Z,0.00
2023-04-27T01:00:37.246Z,0.00
2023-04-27T01:01:37.263Z,0.00
2023-04-27T01:02:37.410Z,0.00
2023-04-27T01:03:37.349Z,0.00
2023-04-27T01:04:37.367Z,0.00
2023-04-27T01:05:37.209Z,0.00
2023-04-27T01:06:37.157Z,0.00
2023-04-27T01:07:37.176Z,0.00
2023-04-27T01:08:37.154Z,0.00
2023-04-27T01:09:37.131Z,0.00
2023-04-27T01:10:37.115Z,0.00
2023-04-27T01:11:37.141Z,0.00
2023-04-27T01:12:37.116Z,0.00
2023-04-27T01:13:37.068Z,0.00
2023-04-27T01:14:37.062Z,0.00
2023-04-27T01:15:37.043Z,0.00
2023-04-27T01:16:37.062Z,0.00
2023-04-27T01:17:37.097Z,0.00
2023-04-27T01:18:37.007Z,0.00
2023-04-27T01:19:36.988Z,0.00
2023-04-27T01:20:37.003Z,0.00
2023-04-27T01:21:36.995Z,0.00
2023-04-27T01:22:36.974Z,0.00
2023-04-27T01:23:36.971Z,0.00
2023-04-27T01:24:36.927Z,0.00
2023-04-27T01:25:36.912Z,0.00
2023-04-27T01:26:36.933Z,0.00
2023-04-27T01:27:36.904Z,0.00
2023-04-27T01:28:36.909Z,0.00
2023-04-27T01:29:36.897Z,0.00
2023-04-27T01:30:36.858Z,0.00
2023-04-27T01:31:36.964Z,0.00
2023-04-27T01:32:36.901Z,0.00
2023-04-27T01:33:36.804Z,0.00
2023-04-27T01:34:36.794Z,0.00
2023-04-27T01:35:36.814Z,0.00
2023-04-27T01:36:36.783Z,0.00
2023-04-27T01:37:36.778Z,0.00
2023-04-27T01:38:36.756Z,0.00
2023-04-27T01:39:36.750Z,0.00
2023-04-27T01:40:36.758Z,0.00
2023-04-27T01:41:36.734Z,0.00
2023-04-27T01:42:36.742Z,0.00
2023-04-27T01:43:36.717Z,0.00
2023-04-27T01:44:36.677Z,0.00
2023-04-27T01:45:36.677Z,0.00
2023-04-27T01:46:36.782Z,0.00
2023-04-27T01:47:36.656Z,0.00
2023-04-27T01:48:36.625Z,0.00
2023-04-27T01:49:36.616Z,0.00
2023-04-27T01:50:36.596Z,0.00
2023-04-27T01:51:36.584Z,0.00
2023-04-27T01:52:36.614Z,0.00
2023-04-27T01:53:36.550Z,0.00
2023-04-27T01:54:36.541Z,0.00
2023-04-27T01:55:36.536Z,0.00
2023-04-27T01:56:36.518Z,0.00
2023-04-27T01:57:36.521Z,0.00
2023-04-27T01:58:36.524Z,0.00
2023-04-27T01:59:36.474Z,0.00
2023-04-27T02:00:36.461Z,0.00
2023-04-27T02:01:36.516Z,0.00
2023-04-27T02:02:36.637Z,0.00
2023-04-27T02:03:36.595Z,0.00
2023-04-27T02:04:36.767Z,0.00
2023-04-27T02:05:36.413Z,0.00
2023-04-27T02:06:36.446Z,0.00
2023-04-27T02:07:36.447Z,0.00
2023-04-27T02:08:36.443Z,0.00
2023-04-27T02:09:36.346Z,0.00
2023-04-27T02:10:36.339Z,0.00
2023-04-27T02:11:36.333Z,0.00
2023-04-27T02:12:36.380Z,0.00
2023-04-27T02:13:36.293Z,0.00
2023-04-27T02:14:36.296Z,0.00
2023-04-27T02:15:36.282Z,0.00
2023-04-27T02:16:36.372Z,0.00
2023-04-27T02:17:36.298Z,0.00
2023-04-27T02:18:36.274Z,0.00
2023-04-27T02:19:36.240Z,0.00
2023-04-27T02:20:36.208Z,0.00
2023-04-27T02:21:36.194Z,0.00
2023-04-27T02:22:36.245Z,0.00
2023-04-27T02:23:36.225Z,0.00
2023-04-27T02:24:36.179Z,0.00
2023-04-27T02:25:36.135Z,0.00
2023-04-27T02:26:36.149Z,0.00
2023-04-27T02:27:36.127Z,0.00
2023-04-27T02:28:42.613Z,0.00
2023-04-27T02:29:36.097Z,0.00
2023-04-27T02:30:36.075Z,0.00
2023-04-27T02:31:36.100Z,0.00
2023-04-27T02:32:36.102Z,0.00
2023-04-27T02:33:36.052Z,0.00
2023-04-27T02:34:36.057Z,0.00
2023-04-27T02:35:36.051Z,0.00
2023-04-27T02:36:36.049Z,0.00
2023-04-27T02:37:36.030Z,0.00
2023-04-27T02:38:36.008Z,0.00
2023-04-27T02:39:35.969Z,0.00
2023-04-27T02:40:35.971Z,0.00
2023-04-27T02:41:35.927Z,0.00
2023-04-27T02:42:35.953Z,0.00
2023-04-27T02:43:35.939Z,0.00
2023-04-27T02:44:35.919Z,0.00
2023-04-27T02:45:35.883Z,0.00
2023-04-27T02:46:35.917Z,0.00
2023-04-27T02:47:35.916Z,0.00
2023-04-27T02:48:35.855Z,0.00
2023-04-27T02:49:37.976Z,0.00
2023-04-27T02:50:35.827Z,0.00
2023-04-27T02:51:35.799Z,0.00
2023-04-27T02:52:35.830Z,0.00
2023-04-27T02:53:35.823Z,0.00
2023-04-27T02:54:35.757Z,0.00
2023-04-27T02:55:35.748Z,0.00
2023-04-27T02:56:35.752Z,0.00
2023-04-27T02:57:35.754Z,0.00
2023-04-27T02:58:35.721Z,0.00
2023-04-27T02:59:35.725Z,0.00
2023-04-27T03:00:35.691Z,0.00
2023-04-27T03:01:35.777Z,0.00
2023-04-27T03:02:35.770Z,0.00
2023-04-27T03:03:35.815Z,0.00
2023-04-27T03:04:35.680Z,0.00
2023-04-27T03:05:35.619Z,0.00
2023-04-27T03:06:35.642Z,0.00
2023-04-27T03:07:35.616Z,0.00
2023-04-27T03:08:35.594Z,0.00
2023-04-27T03:09:35.591Z,0.00
2023-04-27T03:10:35.588Z,0.00
2023-04-27T03:11:37.313Z,0.00
2023-04-27T03:12:35.560Z,0.00
2023-04-27T03:13:35.547Z,0.00
2023-04-27T03:14:35.522Z,0.00
2023-04-27T03:15:35.511Z,0.00
2023-04-27T03:16:35.582Z,0.00
2023-04-27T03:17:35.527Z,0.00
2023-04-27T03:18:35.510Z,0.00
2023-04-27T03:19:35.484Z,0.00
2023-04-27T03:20:35.446Z,0.00
2023-04-27T03:21:35.406Z,0.00
2023-04-27T03:22:35.410Z,0.00
2023-04-27T03:23:35.381Z,0.00
2023-04-27T03:24:35.428Z,0.00
2023-04-27T03:25:35.371Z,0.00
2023-04-27T03:26:35.369Z,0.00
2023-04-27T03:27:35.332Z,0.00
2023-04-27T03:28:35.386Z,0.00
2023-04-27T03:29:35.348Z,0.00
2023-04-27T03:30:35.296Z,0.00
2023-04-27T03:31:35.295Z,0.00
2023-04-27T03:32:35.324Z,0.00
2023-04-27T03:33:35.268Z,0.00
2023-04-27T03:34:35.260Z,0.00
2023-04-27T03:35:35.283Z,0.00
2023-04-27T03:36:35.215Z,0.00
2023-04-27T03:37:35.290Z,0.00
2023-04-27T03:38:35.197Z,0.00
2023-04-27T03:39:35.192Z,0.00
2023-04-27T03:40:35.188Z,0.00
2023-04-27T03:41:35.156Z,0.00
2023-04-27T03:42:35.169Z,0.00
2023-04-27T03:43:35.131Z,1.00
2023-04-27T03:44:35.113Z,1.00
2023-04-27T03:45:35.175Z,1.00
2023-04-27T03:46:35.228Z,1.00
2023-04-27T03:47:35.151Z,1.00
2023-04-27T03:48:35.044Z,2.00
2023-04-27T03:49:34.989Z,2.00
2023-04-27T03:50:35.018Z,1.00
2023-04-27T03:51:34.966Z,1.00
2023-04-27T03:52:34.982Z,2.00
2023-04-27T03:53:34.977Z,3.00
2023-04-27T03:54:34.931Z,2.00
2023-04-27T03:55:34.972Z,5.00
2023-04-27T03:56:34.900Z,5.00
2023-04-27T03:57:34.916Z,9.00
2023-04-27T03:58:34.916Z,8.00
2023-04-27T03:59:34.926Z,8.00
2023-04-27T04:00:34.848Z,11.00
2023-04-27T04:01:34.864Z,14.00
2023-04-27T04:02:34.914Z,14.00
2023-04-27T04:03:34.968Z,16.00
2023-04-27T04:04:34.964Z,22.00
2023-04-27T04:05:34.809Z,25.00
2023-04-27T04:06:34.886Z,27.00
2023-04-27T04:07:34.778Z,35.00
2023-04-27T04:08:34.794Z,38.00
2023-04-27T04:09:34.768Z,44.00
2023-04-27T04:10:34.716Z,51.00
2023-04-27T04:11:34.748Z,57.00
2023-04-27T04:12:34.704Z,67.00
2023-04-27T04:13:34.733Z,79.00
2023-04-27T04:14:34.715Z,87.00
2023-04-27T04:15:34.719Z,98.00
2023-04-27T04:16:34.665Z,115.00
2023-04-27T04:17:34.707Z,131.00
2023-04-27T04:18:34.640Z,146.00
2023-04-27T04:19:34.596Z,163.00
2023-04-27T04:20:34.634Z,175.00
2023-04-27T04:21:34.573Z,193.00
2023-04-27T04:22:34.566Z,213.00
2023-04-27T04:23:34.595Z,225.00
2023-04-27T04:24:34.542Z,245.00
2023-04-27T04:25:34.522Z,267.00
2023-04-27T04:26:34.536Z,290.00
2023-04-27T04:27:34.502Z,319.00
2023-04-27T04:28:34.494Z,344.00
2023-04-27T04:29:34.516Z,372.00
2023-04-27T04:30:34.483Z,392.00
2023-04-27T04:31:34.470Z,407.00
2023-04-27T04:32:34.556Z,436.00
2023-04-27T04:33:34.483Z,463.00
2023-04-27T04:34:34.409Z,490.00
2023-04-27T04:35:34.397Z,519.00
2023-04-27T04:36:34.384Z,541.00
2023-04-27T04:37:34.459Z,574.00
2023-04-27T04:38:34.417Z,613.00
2023-04-27T04:39:34.381Z,651.00
2023-04-27T04:40:34.386Z,696.00
2023-04-27T04:41:34.331Z,728.00
2023-04-27T04:42:34.326Z,765.00
2023-04-27T04:43:34.388Z,804.00
2023-04-27T04:44:34.284Z,850.00
2023-04-27T04:45:34.277Z,902.00
2023-04-27T04:46:34.304Z,939.00
2023-04-27T04:47:34.432Z,977.00
2023-04-27T04:48:34.267Z,1009.00
2023-04-27T04:49:34.244Z,1033.00
2023-04-27T04:50:34.198Z,1064.00
2023-04-27T04:51:34.184Z,1099.00
2023-04-27T04:52:34.200Z,1115.00
2023-04-27T04:53:34.196Z,1156.00
2023-04-27T04:54:34.132Z,1197.00
2023-04-27T04:55:34.168Z,1251.00
2023-04-27T04:56:34.137Z,1299.00
2023-04-27T04:57:34.117Z,1315.00
2023-04-27T04:58:34.189Z,1359.00
2023-04-27T04:59:34.123Z,1392.00
2023-04-27T05:00:34.071Z,1447.00
2023-04-27T05:01:34.106Z,1475.00
2023-04-27T05:02:34.232Z,1444.00
2023-04-27T05:03:34.240Z,1499.00
2023-04-27T05:04:34.170Z,1589.00
2023-04-27T05:05:34.130Z,1562.00
2023-04-27T05:06:34.013Z,1581.00
2023-04-27T05:07:33.976Z,1608.00
2023-04-27T05:08:34.037Z,1622.00
2023-04-27T05:09:33.976Z,1662.00
2023-04-27T05:10:34.009Z,1694.00
2023-04-27T05:11:33.950Z,1696.00
2023-04-27T05:12:33.943Z,1688.00
2023-04-27T05:13:33.967Z,1678.00
2023-04-27T05:14:33.921Z,1718.00
2023-04-27T05:15:33.901Z,1765.00
2023-04-27T05:16:34.057Z,1842.00
2023-04-27T05:17:33.942Z,1725.00
2023-04-27T05:18:33.876Z,1652.00
2023-04-27T05:19:33.840Z,1622.00
2023-04-27T05:20:33.807Z,1618.00
2023-04-27T05:21:33.809Z,1621.00
2023-04-27T05:22:33.797Z,1617.00
2023-04-27T05:23:33.791Z,1627.00
2023-04-27T05:24:33.805Z,1633.00
2023-04-27T05:25:33.758Z,1611.00
2023-04-27T05:26:33.733Z,1571.00
2023-04-27T05:27:33.779Z,1551.00
2023-04-27T05:28:33.722Z,1558.00
2023-04-27T05:29:33.708Z,1595.00
2023-04-27T05:30:33.709Z,1641.00
2023-04-27T05:31:33.696Z,1689.00
2023-04-27T05:32:33.771Z,1738.00
2023-04-27T05:33:33.801Z,1793.00
2023-04-27T05:34:33.638Z,1835.00
2023-04-27T05:35:33.645Z,1848.00
2023-04-27T05:36:33.602Z,1875.00
2023-04-27T05:37:33.650Z,1924.00
2023-04-27T05:38:33.591Z,2002.00
2023-04-27T05:39:33.568Z,2090.00
2023-04-27T05:40:33.556Z,2133.00
2023-04-27T05:41:33.563Z,2204.00
2023-04-27T05:42:33.528Z,2242.00
2023-04-27T05:43:33.550Z,2133.00
2023-04-27T05:44:33.525Z,2548.00
2023-04-27T05:45:33.580Z,2686.00
2023-04-27T05:46:33.470Z,2858.00
2023-04-27T05:47:33.489Z,3057.00
2023-04-27T05:48:33.505Z,3184.00
2023-04-27T05:49:33.452Z,3362.00
2023-04-27T05:50:33.419Z,3310.00
2023-04-27T05:51:33.454Z,3358.00
2023-04-27T05:52:33.421Z,3417.00
2023-04-27T05:53:33.509Z,3540.00
2023-04-27T05:54:33.415Z,2994.00
2023-04-27T05:55:33.351Z,2718.00
2023-04-27T05:56:33.353Z,2905.00
2023-04-27T05:57:33.335Z,2360.00
2023-04-27T05:58:33.339Z,2831.00
2023-04-27T05:59:33.301Z,2595.00
2023-04-27T06:00:33.308Z,2356.00
2023-04-27T06:01:33.283Z,2494.00
2023-04-27T06:02:33.321Z,2867.00
2023-04-27T06:03:33.571Z,2863.00
2023-04-27T06:04:33.351Z,2869.00
2023-04-27T06:05:33.462Z,2880.00
2023-04-27T06:06:33.229Z,2890.00
2023-04-27T06:07:33.194Z,2897.00
2023-04-27T06:08:33.205Z,2915.00
2023-04-27T06:09:33.342Z,2908.00
2023-04-27T06:10:33.152Z,2958.00
2023-04-27T06:11:33.153Z,2929.00
2023-04-27T06:12:33.166Z,2953.00
2023-04-27T06:13:33.133Z,3006.00
2023-04-27T06:14:33.128Z,3072.00
2023-04-27T06:15:33.237Z,2922.00
2023-04-27T06:16:33.216Z,2899.00
2023-04-27T06:17:33.100Z,3013.00
2023-04-27T06:18:33.091Z,3008.00
2023-04-27T06:19:33.057Z,3125.00
2023-04-27T06:20:33.025Z,3148.00
2023-04-27T06:21:33.037Z,3170.00
2023-04-27T06:22:33.000Z,3191.00
2023-04-27T06:23:33.023Z,3222.00
2023-04-27T06:24:33.017Z,3237.00
2023-04-27T06:25:32.973Z,3263.00
2023-04-27T06:26:32.939Z,3285.00
2023-04-27T06:27:32.962Z,3300.00
2023-04-27T06:28:32.983Z,3299.00
2023-04-27T06:29:32.916Z,3309.00
2023-04-27T06:30:32.905Z,3347.00
2023-04-27T06:31:32.943Z,3367.00
2023-04-27T06:32:32.948Z,3360.00
2023-04-27T06:33:32.878Z,3318.00
2023-04-27T06:34:32.904Z,3644.00
2023-04-27T06:35:32.851Z,3567.00
2023-04-27T06:36:32.843Z,3355.00
2023-04-27T06:37:32.906Z,2796.00
2023-04-27T06:38:32.824Z,2819.00
2023-04-27T06:39:32.865Z,3423.00
2023-04-27T06:40:32.773Z,3420.00
2023-04-27T06:41:32.801Z,3435.00
2023-04-27T06:42:32.789Z,3478.00
2023-04-27T06:43:32.830Z,3531.00
2023-04-27T06:44:32.735Z,3588.00
2023-04-27T06:45:32.701Z,3539.00
2023-04-27T06:46:33.431Z,3549.00
2023-04-27T06:47:32.684Z,3639.00
2023-04-27T06:48:32.663Z,3776.00
2023-04-27T06:49:32.659Z,3973.00
2023-04-27T06:50:32.656Z,4409.00
2023-04-27T06:51:32.647Z,4772.00
2023-04-27T06:52:32.628Z,5079.00
2023-04-27T06:53:32.616Z,5006.00
2023-04-27T06:54:32.662Z,6491.00
2023-04-27T06:55:32.599Z,5544.00
2023-04-27T06:56:32.563Z,5487.00
2023-04-27T06:57:32.542Z,5232.00
2023-04-27T06:58:32.564Z,5122.00
2023-04-27T06:59:32.543Z,5074.00
2023-04-27T07:00:32.517Z,5169.00
2023-04-27T07:01:32.561Z,4891.00
2023-04-27T07:02:32.619Z,4378.00
2023-04-27T07:03:32.656Z,4583.00
2023-04-27T07:04:32.518Z,4908.00
2023-04-27T07:05:32.639Z,4877.00
2023-04-27T07:06:32.457Z,4982.00
2023-04-27T07:07:32.462Z,5052.00
2023-04-27T07:08:32.410Z,5165.00
2023-04-27T07:09:33.023Z,5253.00
2023-04-27T07:10:32.392Z,5352.00
2023-04-27T07:11:32.406Z,5262.00
2023-04-27T07:12:32.338Z,4928.00
2023-04-27T07:13:32.392Z,4929.00
2023-04-27T07:14:32.340Z,5156.00
2023-04-27T07:15:32.304Z,5390.00
2023-04-27T07:16:32.370Z,5548.00
2023-04-27T07:17:32.327Z,5681.00
2023-04-27T07:18:32.275Z,5667.00
2023-04-27T07:19:32.255Z,5640.00
2023-04-27T07:20:32.227Z,5738.00
2023-04-27T07:21:32.224Z,5490.00
2023-04-27T07:22:32.239Z,5368.00
2023-04-27T07:23:32.453Z,5172.00
2023-04-27T07:24:32.182Z,5385.00
2023-04-27T07:25:32.198Z,5568.00
2023-04-27T07:26:32.173Z,5646.00
2023-04-27T07:27:32.180Z,5926.00
2023-04-27T07:28:32.136Z,6017.00
2023-04-27T07:29:32.609Z,5816.00
2023-04-27T07:30:32.099Z,5434.00
2023-04-27T07:31:32.130Z,5494.00
2023-04-27T07:32:32.124Z,5711.00
2023-04-27T07:33:32.068Z,5906.00
2023-04-27T07:34:41.141Z,6223.00
2023-04-27T07:35:32.077Z,6383.00
2023-04-27T07:36:32.069Z,6401.00
2023-04-27T07:37:32.039Z,6602.00
2023-04-27T07:38:31.984Z,6576.00
2023-04-27T07:39:32.051Z,6661.00
2023-04-27T07:40:31.986Z,6675.00
2023-04-27T07:41:31.960Z,6683.00
2023-04-27T07:42:31.991Z,6573.00
2023-04-27T07:43:31.976Z,6703.00
2023-04-27T07:44:31.905Z,6398.00
2023-04-27T07:45:32.036Z,6470.00
2023-04-27T07:46:31.900Z,6792.00
2023-04-27T07:47:31.876Z,6842.00
2023-04-27T07:48:31.889Z,7011.00
2023-04-27T07:49:31.855Z,7213.00
2023-04-27T07:50:31.860Z,7328.00
2023-04-27T07:51:31.830Z,7227.00
2023-04-27T07:52:31.801Z,7122.00
2023-04-27T07:53:31.823Z,6987.00
2023-04-27T07:54:31.805Z,6808.00
2023-04-27T07:55:31.784Z,7371.00
2023-04-27T07:56:31.762Z,7654.00
2023-04-27T07:57:31.788Z,7630.00
2023-04-27T07:58:31.836Z,7129.00
2023-04-27T07:59:32.008Z,6787.00
2023-04-27T08:00:31.793Z,6807.00
2023-04-27T08:01:31.697Z,6771.00
2023-04-27T08:02:31.868Z,6993.00
2023-04-27T08:03:31.939Z,6835.00
2023-04-27T08:04:32.146Z,6214.00
2023-04-27T08:05:32.025Z,5889.00
2023-04-27T08:06:32.151Z,5842.00
2023-04-27T08:07:31.899Z,6268.00
2023-04-27T08:08:31.598Z,6552.00
2023-04-27T08:09:31.598Z,6554.00
2023-04-27T08:10:31.596Z,6502.00
2023-04-27T08:11:31.566Z,6690.00
2023-04-27T08:12:31.527Z,7081.00
2023-04-27T08:13:31.543Z,7269.00
2023-04-27T08:14:31.528Z,7762.00
2023-04-27T08:15:31.511Z,8225.00
2023-04-27T08:16:31.588Z,6778.00
2023-04-27T08:17:31.531Z,5865.00
2023-04-27T08:18:31.482Z,6353.00
2023-04-27T08:19:31.519Z,7500.00
2023-04-27T08:20:31.424Z,7924.00
2023-04-27T08:21:31.430Z,7329.00
2023-04-27T08:22:31.432Z,6798.00
2023-04-27T08:23:31.401Z,6845.00
2023-04-27T08:24:31.409Z,7204.00
2023-04-27T08:25:31.398Z,7100.00
2023-04-27T08:26:31.373Z,6494.00
2023-04-27T08:27:31.346Z,6113.00
2023-04-27T08:28:31.359Z,6542.00
2023-04-27T08:29:31.572Z,6847.00
2023-04-27T08:30:31.293Z,6867.00
2023-04-27T08:31:31.343Z,6946.00
2023-04-27T08:32:31.320Z,7189.00
2023-04-27T08:33:31.260Z,7405.00
2023-04-27T08:34:31.302Z,7481.00
2023-04-27T08:35:31.231Z,7607.00
2023-04-27T08:36:31.203Z,8092.00
2023-04-27T08:37:31.259Z,8478.00
2023-04-27T08:38:31.187Z,8617.00
2023-04-27T08:39:31.200Z,8174.00
2023-04-27T08:40:31.210Z,7685.00
2023-04-27T08:41:31.156Z,7641.00
2023-04-27T08:42:31.147Z,7642.00
2023-04-27T08:43:31.171Z,7604.00
2023-04-27T08:44:31.452Z,7479.00
2023-04-27T08:45:31.106Z,7547.00
2023-04-27T08:46:31.132Z,8010.00
2023-04-27T08:47:41.790Z,8086.00
2023-04-27T08:48:31.141Z,8377.00
2023-04-27T08:49:31.095Z,8259.00
2023-04-27T08:50:31.036Z,7628.00
2023-04-27T08:51:31.007Z,7063.00
2023-04-27T08:52:31.043Z,7349.00
2023-04-27T08:53:31.016Z,7531.00
2023-04-27T08:54:31.009Z,7656.00
2023-04-27T08:55:30.962Z,7511.00
2023-04-27T08:56:30.984Z,7397.00
2023-04-27T08:57:30.973Z,7356.00
2023-04-27T08:58:30.964Z,7287.00
2023-04-27T08:59:30.978Z,7245.00
2023-04-27T09:00:30.902Z,7275.00
2023-04-27T09:01:30.922Z,7343.00
2023-04-27T09:02:30.954Z,7448.00
2023-04-27T09:03:31.024Z,7410.00
2023-04-27T09:04:30.920Z,7164.00
2023-04-27T09:05:30.861Z,7108.00
2023-04-27T09:06:30.848Z,7058.00
2023-04-27T09:07:30.815Z,7444.00
2023-04-27T09:08:30.805Z,7609.00
2023-04-27T09:09:30.834Z,7592.00
2023-04-27T09:10:30.796Z,7618.00
2023-04-27T09:11:30.748Z,7507.00
2023-04-27T09:12:30.750Z,7386.00
2023-04-27T09:13:30.723Z,7556.00
2023-04-27T09:14:30.740Z,7687.00
2023-04-27T09:15:30.712Z,7748.00
2023-04-27T09:16:30.804Z,7664.00
2023-04-27T09:17:30.838Z,8009.00
2023-04-27T09:18:30.727Z,7725.00
2023-04-27T09:19:30.695Z,6856.00
2023-04-27T09:20:30.638Z,7180.00
2023-04-27T09:21:30.657Z,7123.00
2023-04-27T09:22:30.611Z,7087.00
2023-04-27T09:23:30.607Z,7010.00
2023-04-27T09:24:30.590Z,7575.00
2023-04-27T09:25:30.568Z,7543.00
2023-04-27T09:26:30.552Z,7418.00
2023-04-27T09:27:30.611Z,7326.00
2023-04-27T09:28:30.540Z,7391.00
2023-04-27T09:29:30.552Z,7157.00
2023-04-27T09:30:30.523Z,6836.00
2023-04-27T09:31:30.588Z,7013.00
2023-04-27T09:32:30.492Z,7178.00
2023-04-27T09:33:30.527Z,6743.00
2023-04-27T09:34:30.489Z,7224.00
2023-04-27T09:35:30.444Z,6168.00
2023-04-27T09:36:30.421Z,7484.00
2023-04-27T09:37:30.423Z,7205.00
2023-04-27T09:38:30.414Z,6578.00
2023-04-27T09:39:30.401Z,6293.00
2023-04-27T09:40:30.422Z,6414.00
2023-04-27T09:41:30.398Z,5783.00
2023-04-27T09:42:30.339Z,7259.00
2023-04-27T09:43:30.350Z,6478.00
2023-04-27T09:44:30.341Z,7296.00
2023-04-27T09:45:30.355Z,7385.00
2023-04-27T09:46:30.372Z,7636.00
2023-04-27T09:47:30.372Z,7841.00
2023-04-27T09:48:30.259Z,7900.00
2023-04-27T09:49:30.334Z,7788.00
2023-04-27T09:50:30.232Z,7771.00
2023-04-27T09:51:30.235Z,7664.00
2023-04-27T09:52:30.216Z,8128.00
2023-04-27T09:53:30.186Z,8675.00
2023-04-27T09:54:30.204Z,8352.00
2023-04-27T09:55:30.223Z,8696.00
2023-04-27T09:56:30.167Z,8968.00
2023-04-27T09:57:30.142Z,9184.00
2023-04-27T09:58:30.174Z,8761.00
2023-04-27T09:59:30.127Z,8426.00
2023-04-27T10:00:30.106Z,8292.00
2023-04-27T10:01:30.168Z,7631.00
2023-04-27T10:02:30.187Z,7660.00
2023-04-27T10:03:30.139Z,6554.00
2023-04-27T10:04:30.272Z,7184.00
2023-04-27T10:05:30.063Z,8176.00
2023-04-27T10:06:30.024Z,6891.00
2023-04-27T10:07:30.001Z,6204.00
2023-04-27T10:08:30.050Z,6563.00
2023-04-27T10:09:29.999Z,6349.00
2023-04-27T10:10:29.968Z,6263.00
2023-04-27T10:11:29.983Z,5491.00
2023-04-27T10:12:29.945Z,6035.00
2023-04-27T10:13:29.925Z,6136.00
2023-04-27T10:14:29.982Z,6098.00
2023-04-27T10:15:30.009Z,7474.00
2023-04-27T10:16:29.899Z,7077.00
2023-04-27T10:17:29.988Z,6782.00
2023-04-27T10:18:29.860Z,8685.00
2023-04-27T10:19:29.892Z,7713.00
2023-04-27T10:20:29.878Z,9247.00
2023-04-27T10:21:29.817Z,8362.00
2023-04-27T10:22:29.812Z,7659.00
2023-04-27T10:23:29.818Z,8856.00
2023-04-27T10:24:29.780Z,7698.00
2023-04-27T10:25:29.804Z,8630.00
2023-04-27T10:26:29.816Z,6761.00
2023-04-27T10:27:29.738Z,9432.00
2023-04-27T10:28:29.731Z,8264.00
2023-04-27T10:29:29.785Z,8138.00
2023-04-27T10:30:30.133Z,8694.00
2023-04-27T10:31:29.883Z,9831.00
2023-04-27T10:32:29.742Z,9654.00
2023-04-27T10:33:29.708Z,8327.00
2023-04-27T10:34:29.666Z,10091.00
2023-04-27T10:35:29.661Z,10084.00
2023-04-27T10:36:29.693Z,9553.00
2023-04-27T10:37:29.612Z,9333.00
2023-04-27T10:38:29.618Z,9943.00
2023-04-27T10:39:39.986Z,10011.00
2023-04-27T10:40:29.633Z,10251.00
2023-04-27T10:41:29.558Z,10779.00
2023-04-27T10:42:29.550Z,10769.00
2023-04-27T10:43:29.662Z,10698.00
2023-04-27T10:44:29.565Z,10357.00
2023-04-27T10:45:31.775Z,10148.00
2023-04-27T10:46:29.588Z,10184.00
2023-04-27T10:47:29.526Z,10006.00
2023-04-27T10:48:29.479Z,9744.00
2023-04-27T10:49:29.456Z,10126.00
2023-04-27T10:50:29.480Z,10333.00
2023-04-27T10:51:29.429Z,10401.00
2023-04-27T10:52:29.424Z,10418.00
2023-04-27T10:53:29.408Z,10531.00
2023-04-27T10:54:29.399Z,10552.00
2023-04-27T10:55:29.441Z,10705.00
2023-04-27T10:56:29.376Z,10794.00
2023-04-27T10:57:29.414Z,11400.00
2023-04-27T10:58:37.683Z,11240.00
2023-04-27T10:59:29.352Z,11871.00
2023-04-27T11:00:29.320Z,9128.00
2023-04-27T11:01:29.405Z,10857.00
2023-04-27T11:02:29.544Z,10579.00
2023-04-27T11:03:29.358Z,10537.00
2023-04-27T11:04:29.300Z,7088.00
2023-04-27T11:05:29.304Z,10245.00
2023-04-27T11:06:29.225Z,10449.00
2023-04-27T11:07:29.263Z,7996.00
2023-04-27T11:08:29.220Z,8959.00
2023-04-27T11:09:29.368Z,8509.00
2023-04-27T11:10:29.197Z,8907.00
2023-04-27T11:11:29.160Z,8715.00
2023-04-27T11:12:29.158Z,9435.00
2023-04-27T11:13:29.193Z,9763.00
2023-04-27T11:14:29.159Z,10157.00
2023-04-27T11:15:29.466Z,10269.00
2023-04-27T11:16:30.798Z,9844.00
2023-04-27T11:17:29.114Z,9236.00
2023-04-27T11:18:29.131Z,9146.00
2023-04-27T11:19:29.059Z,8231.00
2023-04-27T11:20:29.070Z,8871.00
2023-04-27T11:21:29.059Z,7238.00
2023-04-27T11:22:29.025Z,7892.00
2023-04-27T11:23:29.059Z,8261.00
2023-04-27T11:24:29.210Z,8303.00
2023-04-27T11:25:28.995Z,8099.00
2023-04-27T11:26:28.995Z,7525.00
2023-04-27T11:27:28.951Z,7442.00
2023-04-27T11:28:28.953Z,7480.00
2023-04-27T11:29:28.922Z,8498.00
2023-04-27T11:30:28.945Z,6617.00
2023-04-27T11:31:28.928Z,7280.00
2023-04-27T11:32:28.927Z,7582.00
2023-04-27T11:33:28.881Z,7759.00
2023-04-27T11:34:28.875Z,8089.00
2023-04-27T11:35:28.990Z,8148.00
2023-04-27T11:36:28.872Z,8059.00
2023-04-27T11:37:28.857Z,7841.00
2023-04-27T11:38:28.861Z,6592.00
2023-04-27T11:39:29.019Z,8404.00
2023-04-27T11:40:28.785Z,7660.00
2023-04-27T11:41:28.798Z,7188.00
2023-04-27T11:42:28.960Z,7214.00
2023-04-27T11:43:28.751Z,7326.00
2023-04-27T11:44:28.729Z,7363.00
2023-04-27T11:45:28.741Z,7708.00
2023-04-27T11:46:28.733Z,5738.00
2023-04-27T11:47:28.808Z,9115.00
2023-04-27T11:48:28.736Z,9996.00
2023-04-27T11:49:28.654Z,9475.00
2023-04-27T11:50:28.672Z,10112.00
2023-04-27T11:51:28.739Z,11455.00
2023-04-27T11:52:28.637Z,9110.00
2023-04-27T11:53:28.600Z,10911.00
2023-04-27T11:54:28.590Z,9091.00
2023-04-27T11:55:28.630Z,10094.00
2023-04-27T11:56:28.593Z,10667.00
2023-04-27T11:57:28.565Z,10837.00
2023-04-27T11:58:28.567Z,11317.00
2023-04-27T11:59:28.525Z,11297.00
2023-04-27T12:00:28.581Z,10913.00
2023-04-27T12:01:37.695Z,10095.00
2023-04-27T12:02:28.715Z,9771.00
2023-04-27T12:03:28.694Z,9744.00
2023-04-27T12:04:28.616Z,9635.00
2023-04-27T12:05:28.752Z,9141.00
2023-04-27T12:06:33.094Z,10999.00
2023-04-27T12:07:28.441Z,10925.00
2023-04-27T12:08:28.411Z,10869.00
2023-04-27T12:09:28.405Z,9414.00
2023-04-27T12:10:28.431Z,10204.00
2023-04-27T12:11:28.359Z,9302.00
2023-04-27T12:12:28.366Z,9649.00
2023-04-27T12:13:28.367Z,9384.00
2023-04-27T12:14:28.328Z,10057.00
2023-04-27T12:15:28.338Z,9582.00
2023-04-27T12:16:28.360Z,9574.00
2023-04-27T12:17:28.313Z,10706.00
2023-04-27T12:18:28.278Z,9178.00
2023-04-27T12:19:28.254Z,7472.00
2023-04-27T12:20:28.283Z,9400.00
2023-04-27T12:21:28.247Z,9269.00
2023-04-27T12:22:28.229Z,9405.00
2023-04-27T12:23:28.269Z,10170.00
2023-04-27T12:24:28.214Z,8753.00
2023-04-27T12:25:28.275Z,13090.00
2023-04-27T12:26:28.225Z,7196.00
2023-04-27T12:27:28.148Z,12101.00
2023-04-27T12:28:28.133Z,13064.00